Aviation Digital Data Service (ADDS)

Output produced by METARs form (0050 UTC 24 May 2019)
found at http://www.aviationweather.gov/metar/data/
 
LFBA 240030Z AUTO 28006KT 9000 -RA BKN015/// BKN076/// OVC092/// ///TCU 16/14 Q1017
TAF LFBA 231400Z 2315/2324 32005KT CAVOK 
     BECMG 2319/2321 BKN050TCU 
     TEMPO 2321/2324 28015G25KT 4500 -TSRA BKN013TCU BKN060CB